sensor_id;sensor_type;location;lat;lon;timestamp;P1;durP1;ratioP1;P2;durP2;ratioP2
43124;SDS011;49182;50.788;7.318;2023-02-20T00:00:04;5.85;;;2.90;;
43124;SDS011;49182;50.788;7.318;2023-02-20T00:02:33;7.95;;;3.97;;
43124;SDS011;49182;50.788;7.318;2023-02-20T00:05:00;11.25;;;4.03;;
43124;SDS011;49182;50.788;7.318;2023-02-20T00:07:26;7.10;;;2.83;;
43124;SDS011;49182;50.788;7.318;2023-02-20T00:09:53;7.57;;;2.72;;
43124;SDS011;49182;50.788;7.318;2023-02-20T00:12:19;7.95;;;2.88;;
43124;SDS011;49182;50.788;7.318;2023-02-20T00:14:46;5.55;;;2.67;;
43124;SDS011;49182;50.788;7.318;2023-02-20T00:17:12;6.38;;;2.90;;
43124;SDS011;49182;50.788;7.318;2023-02-20T00:19:40;7.60;;;3.10;;
43124;SDS011;49182;50.788;7.318;2023-02-20T00:22:07;9.80;;;3.78;;
43124;SDS011;49182;50.788;7.318;2023-02-20T00:24:34;7.10;;;2.83;;
43124;SDS011;49182;50.788;7.318;2023-02-20T00:27:00;8.25;;;3.85;;
43124;SDS011;49182;50.788;7.318;2023-02-20T00:29:27;6.90;;;3.17;;
43124;SDS011;49182;50.788;7.318;2023-02-20T00:31:54;8.43;;;3.35;;
43124;SDS011;49182;50.788;7.318;2023-02-20T00:34:25;9.93;;;3.40;;
43124;SDS011;49182;50.788;7.318;2023-02-20T00:36:54;8.70;;;3.67;;
43124;SDS011;49182;50.788;7.318;2023-02-20T00:39:21;7.65;;;3.30;;
43124;SDS011;49182;50.788;7.318;2023-02-20T00:41:48;9.13;;;3.35;;
43124;SDS011;49182;50.788;7.318;2023-02-20T00:44:15;6.80;;;3.35;;
43124;SDS011;49182;50.788;7.318;2023-02-20T00:46:41;7.25;;;3.50;;
43124;SDS011;49182;50.788;7.318;2023-02-20T00:49:11;6.55;;;3.20;;
43124;SDS011;49182;50.788;7.318;2023-02-20T00:51:46;8.98;;;3.33;;
43124;SDS011;49182;50.788;7.318;2023-02-20T00:54:14;6.82;;;3.42;;
43124;SDS011;49182;50.788;7.318;2023-02-20T00:56:41;6.05;;;3.22;;
43124;SDS011;49182;50.788;7.318;2023-02-20T00:59:07;8.32;;;3.38;;
43124;SDS011;49182;50.788;7.318;2023-02-20T01:01:34;8.95;;;3.60;;
43124;SDS011;49182;50.788;7.318;2023-02-20T01:04:01;7.90;;;3.67;;
43124;SDS011;49182;50.788;7.318;2023-02-20T01:06:27;7.28;;;3.50;;
43124;SDS011;49182;50.788;7.318;2023-02-20T01:08:54;7.32;;;3.50;;
43124;SDS011;49182;50.788;7.318;2023-02-20T01:11:22;8.88;;;3.90;;
43124;SDS011;49182;50.788;7.318;2023-02-20T01:13:51;8.55;;;3.40;;
43124;SDS011;49182;50.788;7.318;2023-02-20T01:16:17;9.73;;;3.75;;
43124;SDS011;49182;50.788;7.318;2023-02-20T01:18:47;9.20;;;3.80;;
43124;SDS011;49182;50.788;7.318;2023-02-20T01:21:16;9.07;;;3.72;;
43124;SDS011;49182;50.788;7.318;2023-02-20T01:23:42;9.77;;;4.28;;
43124;SDS011;49182;50.788;7.318;2023-02-20T01:26:09;9.68;;;4.30;;
43124;SDS011;49182;50.788;7.318;2023-02-20T01:28:38;9.32;;;4.28;;
43124;SDS011;49182;50.788;7.318;2023-02-20T01:31:04;11.23;;;4.35;;
43124;SDS011;49182;50.788;7.318;2023-02-20T01:33:32;10.45;;;4.68;;
43124;SDS011;49182;50.788;7.318;2023-02-20T01:35:59;8.57;;;4.25;;
43124;SDS011;49182;50.788;7.318;2023-02-20T01:38:26;11.55;;;4.85;;
43124;SDS011;49182;50.788;7.318;2023-02-20T01:40:52;9.68;;;5.03;;
43124;SDS011;49182;50.788;7.318;2023-02-20T01:43:19;7.47;;;3.42;;
43124;SDS011;49182;50.788;7.318;2023-02-20T01:45:47;8.25;;;2.90;;
43124;SDS011;49182;50.788;7.318;2023-02-20T01:48:20;8.25;;;3.42;;
43124;SDS011;49182;50.788;7.318;2023-02-20T01:50:49;6.80;;;2.95;;
43124;SDS011;49182;50.788;7.318;2023-02-20T01:53:22;8.80;;;3.10;;
43124;SDS011;49182;50.788;7.318;2023-02-20T01:55:54;7.07;;;3.10;;
43124;SDS011;49182;50.788;7.318;2023-02-20T02:00:57;6.68;;;3.08;;
43124;SDS011;49182;50.788;7.318;2023-02-20T02:03:26;9.20;;;4.07;;
43124;SDS011;49182;50.788;7.318;2023-02-20T02:05:57;12.90;;;4.10;;
43124;SDS011;49182;50.788;7.318;2023-02-20T02:08:25;12.02;;;3.95;;
43124;SDS011;49182;50.788;7.318;2023-02-20T02:10:56;8.57;;;3.47;;
43124;SDS011;49182;50.788;7.318;2023-02-20T02:13:26;8.35;;;3.13;;
43124;SDS011;49182;50.788;7.318;2023-02-20T02:15:59;10.88;;;3.10;;
43124;SDS011;49182;50.788;7.318;2023-02-20T02:18:38;8.13;;;3.45;;
43124;SDS011;49182;50.788;7.318;2023-02-20T02:30:41;11.13;;;4.18;;
43124;SDS011;49182;50.788;7.318;2023-02-20T02:36:36;8.50;;;3.00;;
43124;SDS011;49182;50.788;7.318;2023-02-20T02:39:14;10.00;;;3.00;;
43124;SDS011;49182;50.788;7.318;2023-02-20T02:41:48;11.25;;;3.70;;
43124;SDS011;49182;50.788;7.318;2023-02-20T02:44:23;10.68;;;3.63;;
43124;SDS011;49182;50.788;7.318;2023-02-20T02:46:58;10.98;;;4.20;;
43124;SDS011;49182;50.788;7.318;2023-02-20T02:49:29;10.05;;;3.85;;
43124;SDS011;49182;50.788;7.318;2023-02-20T02:52:04;9.88;;;3.35;;
43124;SDS011;49182;50.788;7.318;2023-02-20T02:54:31;7.75;;;3.70;;
43124;SDS011;49182;50.788;7.318;2023-02-20T02:57:18;7.20;;;3.28;;
43124;SDS011;49182;50.788;7.318;2023-02-20T03:00:05;10.80;;;3.75;;
43124;SDS011;49182;50.788;7.318;2023-02-20T03:02:35;8.55;;;3.60;;
43124;SDS011;49182;50.788;7.318;2023-02-20T03:05:07;7.78;;;3.28;;
43124;SDS011;49182;50.788;7.318;2023-02-20T03:07:37;11.65;;;4.00;;
43124;SDS011;49182;50.788;7.318;2023-02-20T03:10:11;8.73;;;3.90;;
43124;SDS011;49182;50.788;7.318;2023-02-20T03:12:44;7.95;;;3.72;;
43124;SDS011;49182;50.788;7.318;2023-02-20T03:15:16;16.20;;;3.97;;
43124;SDS011;49182;50.788;7.318;2023-02-20T03:17:52;9.43;;;3.78;;
43124;SDS011;49182;50.788;7.318;2023-02-20T03:20:25;9.77;;;4.10;;
43124;SDS011;49182;50.788;7.318;2023-02-20T03:22:54;8.43;;;3.97;;
43124;SDS011;49182;50.788;7.318;2023-02-20T03:25:25;10.13;;;4.18;;
43124;SDS011;49182;50.788;7.318;2023-02-20T03:27:58;9.02;;;3.78;;
43124;SDS011;49182;50.788;7.318;2023-02-20T03:30:27;9.75;;;4.15;;
43124;SDS011;49182;50.788;7.318;2023-02-20T03:33:00;13.10;;;4.30;;
43124;SDS011;49182;50.788;7.318;2023-02-20T03:35:33;9.68;;;4.50;;
43124;SDS011;49182;50.788;7.318;2023-02-20T03:38:05;11.35;;;3.33;;
43124;SDS011;49182;50.788;7.318;2023-02-20T03:40:34;8.98;;;3.65;;
43124;SDS011;49182;50.788;7.318;2023-02-20T03:43:04;10.70;;;3.88;;
43124;SDS011;49182;50.788;7.318;2023-02-20T03:45:37;11.10;;;4.82;;
43124;SDS011;49182;50.788;7.318;2023-02-20T03:48:10;9.93;;;4.72;;
43124;SDS011;49182;50.788;7.318;2023-02-20T03:50:41;9.57;;;4.57;;
43124;SDS011;49182;50.788;7.318;2023-02-20T03:53:09;8.35;;;3.40;;
43124;SDS011;49182;50.788;7.318;2023-02-20T03:55:37;10.70;;;3.72;;
43124;SDS011;49182;50.788;7.318;2023-02-20T03:58:08;11.75;;;3.80;;
43124;SDS011;49182;50.788;7.318;2023-02-20T04:00:39;9.23;;;3.85;;
43124;SDS011;49182;50.788;7.318;2023-02-20T04:03:09;8.50;;;3.45;;
43124;SDS011;49182;50.788;7.318;2023-02-20T04:05:43;9.60;;;3.58;;
43124;SDS011;49182;50.788;7.318;2023-02-20T04:08:19;10.13;;;4.65;;
43124;SDS011;49182;50.788;7.318;2023-02-20T04:10:51;8.57;;;3.95;;
43124;SDS011;49182;50.788;7.318;2023-02-20T04:13:22;11.30;;;4.07;;
43124;SDS011;49182;50.788;7.318;2023-02-20T04:15:51;8.98;;;3.40;;
43124;SDS011;49182;50.788;7.318;2023-02-20T04:18:20;8.90;;;3.80;;
43124;SDS011;49182;50.788;7.318;2023-02-20T04:20:49;9.27;;;4.22;;
43124;SDS011;49182;50.788;7.318;2023-02-20T04:23:35;8.85;;;4.18;;
43124;SDS011;49182;50.788;7.318;2023-02-20T04:26:06;10.40;;;4.05;;
43124;SDS011;49182;50.788;7.318;2023-02-20T04:28:40;9.15;;;3.67;;
43124;SDS011;49182;50.788;7.318;2023-02-20T04:31:07;8.35;;;3.47;;
43124;SDS011;49182;50.788;7.318;2023-02-20T04:33:36;10.15;;;3.70;;
43124;SDS011;49182;50.788;7.318;2023-02-20T04:36:09;11.05;;;3.75;;
43124;SDS011;49182;50.788;7.318;2023-02-20T04:38:38;12.43;;;3.90;;
43124;SDS011;49182;50.788;7.318;2023-02-20T04:41:09;8.15;;;4.13;;
43124;SDS011;49182;50.788;7.318;2023-02-20T04:43:36;8.70;;;3.50;;
43124;SDS011;49182;50.788;7.318;2023-02-20T04:46:04;13.02;;;3.97;;
43124;SDS011;49182;50.788;7.318;2023-02-20T04:48:32;6.95;;;3.40;;
43124;SDS011;49182;50.788;7.318;2023-02-20T04:51:00;7.25;;;3.90;;
43124;SDS011;49182;50.788;7.318;2023-02-20T04:53:30;8.30;;;3.35;;
43124;SDS011;49182;50.788;7.318;2023-02-20T04:55:59;9.80;;;3.85;;
43124;SDS011;49182;50.788;7.318;2023-02-20T04:58:26;7.43;;;3.35;;
43124;SDS011;49182;50.788;7.318;2023-02-20T05:00:59;12.23;;;4.30;;
43124;SDS011;49182;50.788;7.318;2023-02-20T05:03:25;8.10;;;3.80;;
43124;SDS011;49182;50.788;7.318;2023-02-20T05:05:52;11.75;;;4.72;;
43124;SDS011;49182;50.788;7.318;2023-02-20T05:08:18;12.30;;;4.95;;
43124;SDS011;49182;50.788;7.318;2023-02-20T05:10:45;11.98;;;4.15;;
43124;SDS011;49182;50.788;7.318;2023-02-20T05:13:13;8.55;;;3.47;;
43124;SDS011;49182;50.788;7.318;2023-02-20T05:15:40;10.07;;;4.28;;
43124;SDS011;49182;50.788;7.318;2023-02-20T05:18:07;8.20;;;3.88;;
43124;SDS011;49182;50.788;7.318;2023-02-20T05:20:33;9.30;;;4.07;;
43124;SDS011;49182;50.788;7.318;2023-02-20T05:23:00;8.80;;;3.40;;
43124;SDS011;49182;50.788;7.318;2023-02-20T05:25:27;9.90;;;3.67;;
43124;SDS011;49182;50.788;7.318;2023-02-20T05:27:53;9.05;;;3.67;;
43124;SDS011;49182;50.788;7.318;2023-02-20T05:30:21;8.35;;;4.18;;
43124;SDS011;49182;50.788;7.318;2023-02-20T05:32:48;8.85;;;3.45;;
43124;SDS011;49182;50.788;7.318;2023-02-20T05:35:14;11.65;;;3.80;;
43124;SDS011;49182;50.788;7.318;2023-02-20T05:37:41;10.48;;;3.80;;
43124;SDS011;49182;50.788;7.318;2023-02-20T05:40:08;10.93;;;3.97;;
43124;SDS011;49182;50.788;7.318;2023-02-20T05:42:35;10.45;;;3.60;;
43124;SDS011;49182;50.788;7.318;2023-02-20T05:45:03;11.30;;;3.40;;
43124;SDS011;49182;50.788;7.318;2023-02-20T05:47:31;8.75;;;3.70;;
43124;SDS011;49182;50.788;7.318;2023-02-20T05:49:58;8.07;;;3.78;;
43124;SDS011;49182;50.788;7.318;2023-02-20T05:52:24;8.85;;;3.95;;
43124;SDS011;49182;50.788;7.318;2023-02-20T05:54:51;8.80;;;4.05;;
43124;SDS011;49182;50.788;7.318;2023-02-20T05:57:18;8.40;;;3.60;;
43124;SDS011;49182;50.788;7.318;2023-02-20T05:59:44;12.07;;;3.83;;
43124;SDS011;49182;50.788;7.318;2023-02-20T06:02:11;12.10;;;4.00;;
43124;SDS011;49182;50.788;7.318;2023-02-20T06:04:39;6.57;;;2.78;;
43124;SDS011;49182;50.788;7.318;2023-02-20T06:07:06;8.18;;;3.17;;
43124;SDS011;49182;50.788;7.318;2023-02-20T06:09:34;7.00;;;3.63;;
43124;SDS011;49182;50.788;7.318;2023-02-20T06:12:00;8.95;;;3.35;;
43124;SDS011;49182;50.788;7.318;2023-02-20T06:14:27;8.35;;;3.83;;
43124;SDS011;49182;50.788;7.318;2023-02-20T06:16:55;7.93;;;3.88;;
43124;SDS011;49182;50.788;7.318;2023-02-20T06:19:23;9.70;;;4.22;;
43124;SDS011;49182;50.788;7.318;2023-02-20T06:21:52;7.47;;;3.70;;
43124;SDS011;49182;50.788;7.318;2023-02-20T06:24:19;7.50;;;3.25;;
43124;SDS011;49182;50.788;7.318;2023-02-20T06:26:46;8.95;;;3.63;;
43124;SDS011;49182;50.788;7.318;2023-02-20T06:29:14;8.07;;;3.88;;
43124;SDS011;49182;50.788;7.318;2023-02-20T06:31:41;6.70;;;3.13;;
43124;SDS011;49182;50.788;7.318;2023-02-20T06:34:08;7.00;;;2.95;;
43124;SDS011;49182;50.788;7.318;2023-02-20T06:36:36;6.38;;;3.20;;
43124;SDS011;49182;50.788;7.318;2023-02-20T06:39:06;8.68;;;3.20;;
43124;SDS011;49182;50.788;7.318;2023-02-20T06:41:35;10.30;;;3.83;;
43124;SDS011;49182;50.788;7.318;2023-02-20T06:44:01;12.30;;;3.30;;
43124;SDS011;49182;50.788;7.318;2023-02-20T06:46:28;7.18;;;3.28;;
43124;SDS011;49182;50.788;7.318;2023-02-20T06:48:56;6.85;;;2.92;;
43124;SDS011;49182;50.788;7.318;2023-02-20T06:51:24;9.07;;;3.67;;
43124;SDS011;49182;50.788;7.318;2023-02-20T06:53:53;9.27;;;3.60;;
43124;SDS011;49182;50.788;7.318;2023-02-20T06:56:22;7.68;;;3.45;;
43124;SDS011;49182;50.788;7.318;2023-02-20T06:58:51;8.43;;;3.97;;
43124;SDS011;49182;50.788;7.318;2023-02-20T07:01:19;9.15;;;4.28;;
43124;SDS011;49182;50.788;7.318;2023-02-20T07:03:47;11.13;;;4.25;;
43124;SDS011;49182;50.788;7.318;2023-02-20T07:06:15;8.57;;;4.30;;
43124;SDS011;49182;50.788;7.318;2023-02-20T07:08:42;8.48;;;3.97;;
43124;SDS011;49182;50.788;7.318;2023-02-20T07:11:08;9.07;;;3.92;;
43124;SDS011;49182;50.788;7.318;2023-02-20T07:13:37;7.10;;;3.03;;
43124;SDS011;49182;50.788;7.318;2023-02-20T07:16:04;9.30;;;3.97;;
43124;SDS011;49182;50.788;7.318;2023-02-20T07:18:31;11.85;;;4.07;;
43124;SDS011;49182;50.788;7.318;2023-02-20T07:20:58;9.20;;;4.25;;
43124;SDS011;49182;50.788;7.318;2023-02-20T07:23:24;7.93;;;3.65;;
43124;SDS011;49182;50.788;7.318;2023-02-20T07:25:51;10.38;;;3.67;;
43124;SDS011;49182;50.788;7.318;2023-02-20T07:28:18;9.10;;;4.22;;
43124;SDS011;49182;50.788;7.318;2023-02-20T07:30:47;10.43;;;4.00;;
43124;SDS011;49182;50.788;7.318;2023-02-20T07:33:14;11.00;;;4.95;;
43124;SDS011;49182;50.788;7.318;2023-02-20T07:35:41;12.02;;;4.40;;
43124;SDS011;49182;50.788;7.318;2023-02-20T07:38:08;10.40;;;3.63;;
43124;SDS011;49182;50.788;7.318;2023-02-20T07:40:34;9.05;;;3.35;;
43124;SDS011;49182;50.788;7.318;2023-02-20T07:43:04;7.85;;;3.63;;
43124;SDS011;49182;50.788;7.318;2023-02-20T07:48:04;9.85;;;4.15;;
43124;SDS011;49182;50.788;7.318;2023-02-20T07:50:31;9.77;;;4.40;;
43124;SDS011;49182;50.788;7.318;2023-02-20T07:52:57;8.52;;;4.47;;
43124;SDS011;49182;50.788;7.318;2023-02-20T07:55:24;8.98;;;3.25;;
43124;SDS011;49182;50.788;7.318;2023-02-20T07:57:51;6.93;;;3.13;;
43124;SDS011;49182;50.788;7.318;2023-02-20T08:00:18;7.20;;;3.65;;
43124;SDS011;49182;50.788;7.318;2023-02-20T08:02:45;6.45;;;3.00;;
43124;SDS011;49182;50.788;7.318;2023-02-20T08:05:13;7.13;;;3.03;;
43124;SDS011;49182;50.788;7.318;2023-02-20T08:07:42;7.75;;;3.53;;
43124;SDS011;49182;50.788;7.318;2023-02-20T08:10:10;6.60;;;2.63;;
43124;SDS011;49182;50.788;7.318;2023-02-20T08:12:37;6.97;;;3.10;;
43124;SDS011;49182;50.788;7.318;2023-02-20T08:15:04;7.25;;;3.60;;
43124;SDS011;49182;50.788;7.318;2023-02-20T08:17:36;6.90;;;3.10;;
43124;SDS011;49182;50.788;7.318;2023-02-20T08:20:21;10.70;;;3.65;;
43124;SDS011;49182;50.788;7.318;2023-02-20T08:22:50;10.25;;;3.97;;
43124;SDS011;49182;50.788;7.318;2023-02-20T08:25:33;8.32;;;3.30;;
43124;SDS011;49182;50.788;7.318;2023-02-20T08:28:01;9.52;;;3.90;;
43124;SDS011;49182;50.788;7.318;2023-02-20T08:30:28;7.78;;;3.80;;
43124;SDS011;49182;50.788;7.318;2023-02-20T08:32:55;10.95;;;4.13;;
43124;SDS011;49182;50.788;7.318;2023-02-20T08:35:23;12.50;;;4.47;;
43124;SDS011;49182;50.788;7.318;2023-02-20T08:37:50;7.72;;;3.80;;
43124;SDS011;49182;50.788;7.318;2023-02-20T08:40:17;9.20;;;3.97;;
43124;SDS011;49182;50.788;7.318;2023-02-20T08:42:44;7.13;;;3.78;;
43124;SDS011;49182;50.788;7.318;2023-02-20T08:45:13;8.10;;;3.72;;
43124;SDS011;49182;50.788;7.318;2023-02-20T08:47:40;9.70;;;3.75;;
43124;SDS011;49182;50.788;7.318;2023-02-20T08:50:06;8.30;;;3.72;;
43124;SDS011;49182;50.788;7.318;2023-02-20T08:52:34;8.70;;;3.90;;
43124;SDS011;49182;50.788;7.318;2023-02-20T08:55:01;8.77;;;3.63;;
43124;SDS011;49182;50.788;7.318;2023-02-20T08:57:28;8.48;;;3.85;;
43124;SDS011;49182;50.788;7.318;2023-02-20T08:59:54;9.77;;;3.70;;
43124;SDS011;49182;50.788;7.318;2023-02-20T09:02:22;7.43;;;3.67;;
43124;SDS011;49182;50.788;7.318;2023-02-20T09:04:50;11.55;;;4.20;;
43124;SDS011;49182;50.788;7.318;2023-02-20T09:07:16;8.15;;;3.92;;
43124;SDS011;49182;50.788;7.318;2023-02-20T09:09:45;8.18;;;3.63;;
43124;SDS011;49182;50.788;7.318;2023-02-20T09:12:11;9.90;;;4.15;;
43124;SDS011;49182;50.788;7.318;2023-02-20T09:14:38;8.73;;;3.63;;
43124;SDS011;49182;50.788;7.318;2023-02-20T09:17:05;11.90;;;3.70;;
43124;SDS011;49182;50.788;7.318;2023-02-20T09:19:32;9.10;;;5.05;;
43124;SDS011;49182;50.788;7.318;2023-02-20T09:21:58;8.50;;;4.18;;
43124;SDS011;49182;50.788;7.318;2023-02-20T09:24:25;7.50;;;3.67;;
43124;SDS011;49182;50.788;7.318;2023-02-20T09:26:53;10.45;;;4.18;;
43124;SDS011;49182;50.788;7.318;2023-02-20T09:29:22;8.18;;;3.30;;
43124;SDS011;49182;50.788;7.318;2023-02-20T09:31:48;8.32;;;3.75;;
43124;SDS011;49182;50.788;7.318;2023-02-20T09:34:15;9.23;;;4.05;;
43124;SDS011;49182;50.788;7.318;2023-02-20T09:36:42;8.13;;;3.58;;
43124;SDS011;49182;50.788;7.318;2023-02-20T09:39:08;8.88;;;3.35;;
43124;SDS011;49182;50.788;7.318;2023-02-20T09:41:39;9.05;;;3.63;;
43124;SDS011;49182;50.788;7.318;2023-02-20T09:44:17;10.85;;;3.70;;
43124;SDS011;49182;50.788;7.318;2023-02-20T09:46:51;8.32;;;3.60;;
43124;SDS011;49182;50.788;7.318;2023-02-20T09:49:23;12.70;;;6.27;;
43124;SDS011;49182;50.788;7.318;2023-02-20T09:51:57;7.97;;;3.60;;
43124;SDS011;49182;50.788;7.318;2023-02-20T09:54:29;10.15;;;4.55;;
43124;SDS011;49182;50.788;7.318;2023-02-20T09:57:00;10.47;;;3.90;;
43124;SDS011;49182;50.788;7.318;2023-02-20T09:59:31;10.98;;;3.58;;
43124;SDS011;49182;50.788;7.318;2023-02-20T10:02:03;9.57;;;3.65;;
43124;SDS011;49182;50.788;7.318;2023-02-20T10:04:47;13.15;;;4.57;;
43124;SDS011;49182;50.788;7.318;2023-02-20T10:07:28;10.43;;;3.70;;
43124;SDS011;49182;50.788;7.318;2023-02-20T10:09:57;10.60;;;3.63;;
43124;SDS011;49182;50.788;7.318;2023-02-20T10:12:27;10.52;;;4.40;;
43124;SDS011;49182;50.788;7.318;2023-02-20T10:18:13;8.82;;;4.35;;
43124;SDS011;49182;50.788;7.318;2023-02-20T10:20:51;9.57;;;4.03;;
43124;SDS011;49182;50.788;7.318;2023-02-20T10:23:26;8.52;;;3.55;;
43124;SDS011;49182;50.788;7.318;2023-02-20T10:26:07;11.10;;;4.10;;
43124;SDS011;49182;50.788;7.318;2023-02-20T10:28:41;8.70;;;4.25;;
43124;SDS011;49182;50.788;7.318;2023-02-20T10:31:15;10.85;;;4.50;;
43124;SDS011;49182;50.788;7.318;2023-02-20T10:33:56;8.73;;;4.18;;
43124;SDS011;49182;50.788;7.318;2023-02-20T10:36:32;7.35;;;3.85;;
43124;SDS011;49182;50.788;7.318;2023-02-20T10:39:10;14.25;;;5.75;;
43124;SDS011;49182;50.788;7.318;2023-02-20T10:41:41;10.63;;;4.13;;
43124;SDS011;49182;50.788;7.318;2023-02-20T10:44:16;9.30;;;4.57;;
43124;SDS011;49182;50.788;7.318;2023-02-20T10:46:55;8.75;;;4.00;;
43124;SDS011;49182;50.788;7.318;2023-02-20T10:49:29;12.98;;;4.18;;
43124;SDS011;49182;50.788;7.318;2023-02-20T10:52:05;10.70;;;4.53;;
43124;SDS011;49182;50.788;7.318;2023-02-20T10:54:58;7.75;;;3.58;;
43124;SDS011;49182;50.788;7.318;2023-02-20T10:57:33;10.15;;;4.00;;
43124;SDS011;49182;50.788;7.318;2023-02-20T11:00:08;9.55;;;3.20;;
43124;SDS011;49182;50.788;7.318;2023-02-20T11:02:51;8.43;;;3.65;;
43124;SDS011;49182;50.788;7.318;2023-02-20T11:05:24;6.53;;;3.38;;
43124;SDS011;49182;50.788;7.318;2023-02-20T11:07:59;7.70;;;4.03;;
43124;SDS011;49182;50.788;7.318;2023-02-20T11:10:27;7.30;;;3.25;;
43124;SDS011;49182;50.788;7.318;2023-02-20T11:12:56;8.82;;;3.78;;
43124;SDS011;49182;50.788;7.318;2023-02-20T11:15:29;10.05;;;4.30;;
43124;SDS011;49182;50.788;7.318;2023-02-20T11:18:10;12.80;;;4.00;;
43124;SDS011;49182;50.788;7.318;2023-02-20T11:20:48;8.25;;;3.72;;
43124;SDS011;49182;50.788;7.318;2023-02-20T11:29:05;7.45;;;3.65;;
43124;SDS011;49182;50.788;7.318;2023-02-20T11:31:43;7.22;;;4.00;;
43124;SDS011;49182;50.788;7.318;2023-02-20T11:34:18;7.13;;;3.70;;
43124;SDS011;49182;50.788;7.318;2023-02-20T11:36:48;8.27;;;4.45;;
43124;SDS011;49182;50.788;7.318;2023-02-20T11:39:27;8.90;;;4.30;;
43124;SDS011;49182;50.788;7.318;2023-02-20T11:42:04;7.13;;;3.60;;
43124;SDS011;49182;50.788;7.318;2023-02-20T11:44:39;9.18;;;3.83;;
43124;SDS011;49182;50.788;7.318;2023-02-20T11:50:17;7.75;;;4.05;;
43124;SDS011;49182;50.788;7.318;2023-02-20T11:52:58;8.35;;;3.58;;
43124;SDS011;49182;50.788;7.318;2023-02-20T11:55:28;9.25;;;4.30;;
43124;SDS011;49182;50.788;7.318;2023-02-20T11:57:55;8.18;;;4.22;;
43124;SDS011;49182;50.788;7.318;2023-02-20T12:00:25;10.57;;;4.43;;
43124;SDS011;49182;50.788;7.318;2023-02-20T12:03:02;10.77;;;4.20;;
43124;SDS011;49182;50.788;7.318;2023-02-20T12:11:12;9.13;;;4.47;;
43124;SDS011;49182;50.788;7.318;2023-02-20T12:13:42;11.27;;;4.00;;
43124;SDS011;49182;50.788;7.318;2023-02-20T12:16:25;9.70;;;4.53;;
43124;SDS011;49182;50.788;7.318;2023-02-20T12:19:08;8.63;;;4.47;;
43124;SDS011;49182;50.788;7.318;2023-02-20T12:21:50;8.63;;;4.28;;
43124;SDS011;49182;50.788;7.318;2023-02-20T12:27:33;7.82;;;3.95;;
43124;SDS011;49182;50.788;7.318;2023-02-20T12:30:21;9.05;;;4.55;;
43124;SDS011;49182;50.788;7.318;2023-02-20T12:33:01;12.13;;;4.53;;
43124;SDS011;49182;50.788;7.318;2023-02-20T12:35:39;8.68;;;4.50;;
43124;SDS011;49182;50.788;7.318;2023-02-20T12:38:27;18.48;;;9.00;;
43124;SDS011;49182;50.788;7.318;2023-02-20T12:41:15;10.55;;;5.03;;
43124;SDS011;49182;50.788;7.318;2023-02-20T12:43:56;11.25;;;5.00;;
43124;SDS011;49182;50.788;7.318;2023-02-20T12:46:47;12.93;;;5.15;;
43124;SDS011;49182;50.788;7.318;2023-02-20T12:49:35;9.32;;;5.03;;
43124;SDS011;49182;50.788;7.318;2023-02-20T12:52:39;11.02;;;4.57;;
43124;SDS011;49182;50.788;7.318;2023-02-20T12:55:19;9.93;;;5.82;;
43124;SDS011;49182;50.788;7.318;2023-02-20T12:57:59;11.77;;;5.55;;
43124;SDS011;49182;50.788;7.318;2023-02-20T13:00:37;8.93;;;4.97;;
43124;SDS011;49182;50.788;7.318;2023-02-20T13:03:10;9.93;;;5.15;;
43124;SDS011;49182;50.788;7.318;2023-02-20T13:05:41;12.30;;;5.38;;
43124;SDS011;49182;50.788;7.318;2023-02-20T13:08:11;10.70;;;5.32;;
43124;SDS011;49182;50.788;7.318;2023-02-20T13:10:49;9.75;;;5.18;;
43124;SDS011;49182;50.788;7.318;2023-02-20T13:13:19;10.75;;;5.60;;
43124;SDS011;49182;50.788;7.318;2023-02-20T13:15:51;10.90;;;6.10;;
43124;SDS011;49182;50.788;7.318;2023-02-20T13:18:31;9.75;;;5.18;;
43124;SDS011;49182;50.788;7.318;2023-02-20T13:21:09;13.23;;;4.97;;
43124;SDS011;49182;50.788;7.318;2023-02-20T13:23:41;11.90;;;6.03;;
43124;SDS011;49182;50.788;7.318;2023-02-20T13:29:26;12.82;;;5.65;;
43124;SDS011;49182;50.788;7.318;2023-02-20T13:31:56;14.10;;;6.22;;
43124;SDS011;49182;50.788;7.318;2023-02-20T13:34:30;11.02;;;5.43;;
43124;SDS011;49182;50.788;7.318;2023-02-20T13:42:27;11.82;;;6.65;;
43124;SDS011;49182;50.788;7.318;2023-02-20T13:45:04;11.18;;;6.40;;
43124;SDS011;49182;50.788;7.318;2023-02-20T13:48:17;10.82;;;5.65;;
43124;SDS011;49182;50.788;7.318;2023-02-20T13:51:27;13.38;;;6.50;;
43124;SDS011;49182;50.788;7.318;2023-02-20T13:56:57;13.82;;;6.30;;
43124;SDS011;49182;50.788;7.318;2023-02-20T13:59:34;13.88;;;6.68;;
43124;SDS011;49182;50.788;7.318;2023-02-20T14:02:18;13.80;;;6.22;;
43124;SDS011;49182;50.788;7.318;2023-02-20T14:04:56;12.60;;;6.05;;
43124;SDS011;49182;50.788;7.318;2023-02-20T14:07:26;14.10;;;6.07;;
43124;SDS011;49182;50.788;7.318;2023-02-20T14:09:59;10.52;;;5.65;;
43124;SDS011;49182;50.788;7.318;2023-02-20T14:12:30;13.30;;;5.88;;
43124;SDS011;49182;50.788;7.318;2023-02-20T14:15:01;10.98;;;5.75;;
43124;SDS011;49182;50.788;7.318;2023-02-20T14:17:31;12.18;;;6.18;;
43124;SDS011;49182;50.788;7.318;2023-02-20T14:19:59;12.60;;;6.03;;
43124;SDS011;49182;50.788;7.318;2023-02-20T14:22:40;16.08;;;6.45;;
43124;SDS011;49182;50.788;7.318;2023-02-20T14:25:14;12.38;;;6.55;;
43124;SDS011;49182;50.788;7.318;2023-02-20T14:27:45;16.98;;;6.72;;
43124;SDS011;49182;50.788;7.318;2023-02-20T14:30:15;10.90;;;5.88;;
43124;SDS011;49182;50.788;7.318;2023-02-20T14:32:46;12.05;;;6.32;;
43124;SDS011;49182;50.788;7.318;2023-02-20T14:35:22;13.32;;;6.88;;
43124;SDS011;49182;50.788;7.318;2023-02-20T14:38:01;11.40;;;6.72;;
43124;SDS011;49182;50.788;7.318;2023-02-20T14:40:37;13.55;;;6.22;;
43124;SDS011;49182;50.788;7.318;2023-02-20T14:43:08;14.02;;;6.60;;
43124;SDS011;49182;50.788;7.318;2023-02-20T14:45:40;14.00;;;6.07;;
43124;SDS011;49182;50.788;7.318;2023-02-20T14:48:16;14.35;;;6.25;;
43124;SDS011;49182;50.788;7.318;2023-02-20T14:50:47;12.60;;;6.10;;
43124;SDS011;49182;50.788;7.318;2023-02-20T14:53:27;12.77;;;6.53;;
43124;SDS011;49182;50.788;7.318;2023-02-20T14:55:54;14.52;;;6.45;;
43124;SDS011;49182;50.788;7.318;2023-02-20T14:58:20;16.30;;;6.50;;
43124;SDS011;49182;50.788;7.318;2023-02-20T15:00:47;11.77;;;5.95;;
43124;SDS011;49182;50.788;7.318;2023-02-20T15:03:19;13.68;;;6.35;;
43124;SDS011;49182;50.788;7.318;2023-02-20T15:05:58;12.07;;;5.80;;
43124;SDS011;49182;50.788;7.318;2023-02-20T15:08:29;13.55;;;6.40;;
43124;SDS011;49182;50.788;7.318;2023-02-20T15:10:57;13.57;;;6.63;;
43124;SDS011;49182;50.788;7.318;2023-02-20T15:13:33;12.75;;;6.13;;
43124;SDS011;49182;50.788;7.318;2023-02-20T15:16:03;12.35;;;5.68;;
43124;SDS011;49182;50.788;7.318;2023-02-20T15:18:35;14.73;;;6.32;;
43124;SDS011;49182;50.788;7.318;2023-02-20T15:21:03;14.90;;;6.18;;
43124;SDS011;49182;50.788;7.318;2023-02-20T15:23:31;14.43;;;6.30;;
43124;SDS011;49182;50.788;7.318;2023-02-20T15:29:08;13.85;;;6.43;;
43124;SDS011;49182;50.788;7.318;2023-02-20T15:31:36;13.10;;;6.28;;
43124;SDS011;49182;50.788;7.318;2023-02-20T15:34:09;12.75;;;5.78;;
43124;SDS011;49182;50.788;7.318;2023-02-20T15:36:38;13.50;;;5.97;;
43124;SDS011;49182;50.788;7.318;2023-02-20T15:39:08;12.68;;;6.22;;
43124;SDS011;49182;50.788;7.318;2023-02-20T15:41:37;28.20;;;12.57;;
43124;SDS011;49182;50.788;7.318;2023-02-20T15:44:03;15.30;;;7.00;;
43124;SDS011;49182;50.788;7.318;2023-02-20T15:46:30;16.92;;;7.38;;
43124;SDS011;49182;50.788;7.318;2023-02-20T15:48:57;16.58;;;6.93;;
43124;SDS011;49182;50.788;7.318;2023-02-20T15:51:25;12.88;;;6.88;;
43124;SDS011;49182;50.788;7.318;2023-02-20T15:53:51;14.90;;;6.28;;
43124;SDS011;49182;50.788;7.318;2023-02-20T15:56:19;15.77;;;7.07;;
43124;SDS011;49182;50.788;7.318;2023-02-20T15:58:46;16.33;;;7.07;;